Time;durP1;ratioP1;P1;durP2;ratioP2;P2;SDS_P1;SDS_P2;PMS_P1;PMS_P2;Temp;Humidity;BMP_temperature;BMP_pressure;BME280_temperature;BME280_humidity;BME280_pressure;Samples;Min_cycle;Max_cycle;Signal;HPM_P1;HPM_P2
2021/09/13 00:01:11;;;;;;;2.45;1.42;;;17.20;99.90;;;;;;5053443;28;20383;-89
2021/09/13 00:03:37;;;;;;;6.13;1.75;;;17.10;99.90;;;;;;5054350;28;20114;-90
2021/09/13 00:06:02;;;;;;;4.72;1.52;;;17.10;99.90;;;;;;5053039;28;20112;-90
2021/09/13 00:08:28;;;;;;;4.80;2.00;;;17.00;99.90;;;;;;5054445;28;20047;-89
2021/09/13 00:10:53;;;;;;;3.67;1.70;;;17.10;99.90;;;;;;5053624;28;20033;-90
2021/09/13 00:13:19;;;;;;;6.70;1.50;;;17.00;99.90;;;;;;5053768;28;20041;-89
2021/09/13 00:15:45;;;;;;;3.70;1.88;;;17.00;99.90;;;;;;5053111;28;20029;-90
2021/09/13 00:18:11;;;;;;;7.07;1.80;;;17.10;99.90;;;;;;5053275;28;20025;-88
2021/09/13 00:20:36;;;;;;;3.25;2.10;;;16.90;99.90;;;;;;5054177;28;20620;-89
2021/09/13 00:23:02;;;;;;;4.30;1.58;;;17.00;99.90;;;;;;5053041;28;20025;-89
2021/09/13 00:25:28;;;;;;;2.35;1.60;;;17.00;99.90;;;;;;5053197;28;20074;-89
2021/09/13 00:27:54;;;;;;;4.03;1.75;;;17.00;99.90;;;;;;5054340;28;20029;-89
2021/09/13 00:30:20;;;;;;;3.00;2.08;;;17.10;99.90;;;;;;5052784;28;20144;-89
2021/09/13 00:32:46;;;;;;;8.52;1.85;;;17.00;99.90;;;;;;5052869;28;20025;-89
2021/09/13 00:35:12;;;;;;;3.80;1.60;;;17.00;99.90;;;;;;5053894;28;20036;-89
2021/09/13 00:37:38;;;;;;;4.65;2.15;;;17.00;99.90;;;;;;5053275;28;20025;-89
2021/09/13 00:40:04;;;;;;;5.07;1.73;;;17.10;99.90;;;;;;5052730;28;20511;-89
2021/09/13 00:42:31;;;;;;;2.97;1.67;;;17.10;99.90;;;;;;5052953;28;20029;-89
2021/09/13 00:44:57;;;;;;;5.80;1.52;;;17.10;99.90;;;;;;5052816;28;20362;-89
2021/09/13 00:47:23;;;;;;;5.10;1.63;;;17.10;99.90;;;;;;5053060;28;20029;-89
2021/09/13 00:49:49;;;;;;;3.25;1.70;;;17.00;99.90;;;;;;5054391;28;20436;-90
2021/09/13 00:52:15;;;;;;;4.32;1.50;;;17.10;99.90;;;;;;5052799;28;20027;-90
2021/09/13 00:54:41;;;;;;;1.65;1.50;;;17.20;99.90;;;;;;5052789;28;20099;-90
2021/09/13 00:57:07;;;;;;;2.15;1.52;;;17.20;99.90;;;;;;5052695;28;20032;-89
2021/09/13 00:59:33;;;;;;;5.10;1.65;;;17.20;99.90;;;;;;5052889;28;20366;-89
2021/09/13 01:01:59;;;;;;;4.13;1.90;;;17.20;99.90;;;;;;5052685;28;20166;-89
2021/09/13 01:04:24;;;;;;;3.05;2.10;;;17.10;99.90;;;;;;5052479;28;20021;-90
2021/09/13 01:06:50;;;;;;;2.22;1.38;;;17.10;99.90;;;;;;5053863;28;20040;-89
2021/09/13 01:09:16;;;;;;;6.57;1.55;;;17.10;99.90;;;;;;5052747;28;20532;-90
2021/09/13 01:11:43;;;;;;;7.78;1.75;;;17.00;99.90;;;;;;5052980;28;20028;-91
2021/09/13 01:14:09;;;;;;;5.00;1.88;;;17.10;99.90;;;;;;5052796;28;20507;-90
2021/09/13 01:16:34;;;;;;;4.90;1.70;;;17.20;99.90;;;;;;5052917;28;20029;-90
2021/09/13 01:19:00;;;;;;;4.70;1.70;;;17.20;99.90;;;;;;5055377;28;20029;-88
2021/09/13 01:21:31;;;;;;;5.45;1.75;;;17.20;99.90;;;;;;5056441;28;20025;-90
2021/09/13 01:23:56;;;;;;;4.90;1.75;;;17.30;99.90;;;;;;5056216;28;20047;-90
2021/09/13 01:26:22;;;;;;;3.35;1.70;;;17.00;99.90;;;;;;5056205;28;20017;-89
2021/09/13 01:28:48;;;;;;;3.25;1.60;;;17.00;99.90;;;;;;5057915;28;20045;-89
2021/09/13 01:31:14;;;;;;;5.68;1.55;;;16.90;99.90;;;;;;5056032;28;20082;-89
2021/09/13 01:33:39;;;;;;;4.63;1.52;;;16.80;99.90;;;;;;5057415;28;20025;-89
2021/09/13 01:36:05;;;;;;;4.47;1.80;;;16.90;99.90;;;;;;5058608;28;20024;-90
2021/09/13 01:38:32;;;;;;;10.88;1.88;;;16.70;99.90;;;;;;5072545;28;20037;-90
2021/09/13 01:40:58;;;;;;;6.13;1.90;;;16.70;99.90;;;;;;5068727;28;20047;-90
2021/09/13 01:43:24;;;;;;;2.90;1.80;;;16.70;99.90;;;;;;5059559;28;20021;-90
2021/09/13 01:45:49;;;;;;;6.53;1.73;;;16.70;99.90;;;;;;5057606;28;20087;-89
2021/09/13 01:48:16;;;;;;;7.45;1.80;;;16.90;99.90;;;;;;5058151;28;20059;-90
2021/09/13 01:50:42;;;;;;;5.70;1.80;;;17.10;99.90;;;;;;5057752;28;20036;-89
2021/09/13 01:53:08;;;;;;;7.55;1.67;;;17.00;99.90;;;;;;5056090;28;20515;-89
2021/09/13 01:55:33;;;;;;;6.60;1.77;;;17.00;99.90;;;;;;5055623;28;20025;-89
2021/09/13 01:57:59;;;;;;;3.35;1.35;;;16.90;99.90;;;;;;5056018;28;20054;-89
2021/09/13 02:00:25;;;;;;;3.55;1.50;;;16.90;99.90;;;;;;5055436;28;20100;-89
2021/09/13 02:02:51;;;;;;;4.18;1.88;;;16.70;99.90;;;;;;5056000;28;20017;-90
2021/09/13 02:05:16;;;;;;;6.05;1.75;;;16.40;99.90;;;;;;5057191;28;20366;-90
2021/09/13 02:07:42;;;;;;;3.33;1.42;;;16.50;99.90;;;;;;5056100;28;20032;-90
2021/09/13 02:10:08;;;;;;;5.57;1.63;;;16.70;99.90;;;;;;5056411;28;20025;-91
2021/09/13 02:12:34;;;;;;;7.40;1.73;;;16.90;99.90;;;;;;5057103;28;20068;-90
2021/09/13 02:15:00;;;;;;;3.95;1.90;;;17.00;99.90;;;;;;5056406;28;20432;-89
2021/09/13 02:17:26;;;;;;;3.25;1.83;;;17.00;99.90;;;;;;5054701;28;20021;-88
2021/09/13 02:19:51;;;;;;;5.82;1.85;;;17.00;99.90;;;;;;5055019;28;20116;-89
2021/09/13 02:22:17;;;;;;;4.00;1.50;;;16.90;99.90;;;;;;5055228;28;20020;-90
2021/09/13 02:24:43;;;;;;;4.38;1.83;;;17.00;99.90;;;;;;5055403;28;20388;-89
2021/09/13 02:27:09;;;;;;;4.93;1.50;;;17.10;99.90;;;;;;5056473;28;20025;-90
2021/09/13 02:29:35;;;;;;;6.55;1.45;;;17.00;99.90;;;;;;5053907;28;20032;-90
2021/09/13 02:32:01;;;;;;;4.50;1.80;;;16.90;99.90;;;;;;5056885;28;20497;-90
2021/09/13 02:34:27;;;;;;;4.93;1.80;;;16.70;99.90;;;;;;5056088;28;20029;-88
2021/09/13 02:36:53;;;;;;;5.20;1.80;;;16.50;99.90;;;;;;5054716;28;20082;-89
2021/09/13 02:39:19;;;;;;;7.50;1.60;;;16.40;99.90;;;;;;5056162;28;20024;-89
2021/09/13 02:41:44;;;;;;;5.28;1.80;;;16.50;99.90;;;;;;5054601;28;20052;-90
2021/09/13 02:44:10;;;;;;;4.82;1.77;;;16.70;99.90;;;;;;5054555;28;20029;-90
2021/09/13 02:46:36;;;;;;;4.57;1.70;;;16.80;99.90;;;;;;5054506;28;20477;-89
2021/09/13 02:49:02;;;;;;;2.80;1.67;;;16.80;99.90;;;;;;5054524;28;20120;-89
2021/09/13 02:51:27;;;;;;;11.00;1.95;;;16.80;99.90;;;;;;5055744;28;20099;-89
2021/09/13 02:53:53;;;;;;;3.92;1.75;;;16.60;99.90;;;;;;5042974;28;20185;-90
2021/09/13 02:56:19;;;;;;;3.10;1.40;;;16.50;99.90;;;;;;5018122;28;20025;-90
2021/09/13 02:58:46;;;;;;;7.13;1.92;;;16.60;99.90;;;;;;5017920;28;20048;-89
2021/09/13 03:01:12;;;;;;;8.13;1.73;;;16.40;99.90;;;;;;5017952;28;20049;-90
2021/09/13 03:03:38;;;;;;;2.42;1.77;;;16.40;99.90;;;;;;5017872;28;20052;-90
2021/09/13 03:06:03;;;;;;;3.58;1.60;;;16.50;99.90;;;;;;5018888;28;20029;-89
2021/09/13 03:08:29;;;;;;;6.43;2.17;;;16.50;99.90;;;;;;5018177;28;20033;-90
2021/09/13 03:10:54;;;;;;;6.43;2.03;;;16.40;99.90;;;;;;5017974;28;20025;-90
2021/09/13 03:13:20;;;;;;;6.05;1.60;;;16.30;99.90;;;;;;5035428;28;20435;-89
2021/09/13 03:15:46;;;;;;;4.20;1.77;;;16.30;99.90;;;;;;5017914;28;20036;-90
2021/09/13 03:18:12;;;;;;;5.35;1.50;;;16.30;99.90;;;;;;5017446;28;20029;-89
2021/09/13 03:20:37;;;;;;;4.43;2.00;;;16.20;99.90;;;;;;5017755;28;20485;-89
2021/09/13 03:23:03;;;;;;;6.50;2.03;;;16.20;99.90;;;;;;5017795;28;20021;-90
2021/09/13 03:25:29;;;;;;;3.55;1.85;;;16.40;99.90;;;;;;5017866;28;20112;-89
2021/09/13 03:27:55;;;;;;;5.90;1.85;;;16.50;99.90;;;;;;5035254;28;20029;-89
2021/09/13 03:30:21;;;;;;;9.70;1.80;;;16.50;99.90;;;;;;5034802;28;20108;-89
2021/09/13 03:32:47;;;;;;;5.68;1.85;;;16.20;99.90;;;;;;5017295;28;20026;-90
2021/09/13 03:35:12;;;;;;;3.83;1.75;;;16.30;99.90;;;;;;5017297;28;20029;-89
2021/09/13 03:37:38;;;;;;;6.13;1.85;;;16.30;99.90;;;;;;5035178;28;20029;-89
2021/09/13 03:40:05;;;;;;;4.82;1.67;;;16.30;99.90;;;;;;5017163;28;20075;-88
2021/09/13 03:42:31;;;;;;;2.47;1.40;;;16.30;99.90;;;;;;5017467;28;20029;-89
2021/09/13 03:44:56;;;;;;;6.88;1.77;;;16.40;99.90;;;;;;5035483;28;20030;-90
2021/09/13 03:47:22;;;;;;;5.72;1.60;;;16.40;99.90;;;;;;5043959;28;20030;-90
2021/09/13 03:49:48;;;;;;;4.72;1.90;;;16.50;99.90;;;;;;5032419;28;20032;-90
2021/09/13 03:52:14;;;;;;;2.15;1.70;;;16.60;99.90;;;;;;5023587;28;20533;-90
2021/09/13 03:54:40;;;;;;;2.65;1.77;;;16.70;99.90;;;;;;5052658;28;20053;-90
2021/09/13 03:57:06;;;;;;;2.05;1.55;;;16.80;99.90;;;;;;5054807;28;20075;-89
2021/09/13 03:59:32;;;;;;;2.95;1.80;;;16.70;99.90;;;;;;5054205;28;20021;-89
2021/09/13 04:01:58;;;;;;;6.20;1.90;;;16.70;99.90;;;;;;5054934;28;20025;-90
2021/09/13 04:04:28;;;;;;;3.13;1.58;;;16.30;99.90;;;;;;5054920;28;20021;-90
2021/09/13 04:07:17;;;;;;;6.07;1.65;;;16.20;99.90;;;;;;5053144;28;20025;-89
2021/09/13 04:12:27;;;;;;;1.73;1.52;;;16.30;99.90;;;;;;5055301;28;20083;-89
2021/09/13 04:14:52;;;;;;;3.75;1.67;;;16.30;99.90;;;;;;5053215;28;20033;-89
2021/09/13 04:17:18;;;;;;;5.63;1.35;;;16.30;99.90;;;;;;5053651;28;20112;-89
2021/09/13 04:19:44;;;;;;;2.97;1.58;;;16.20;99.90;;;;;;5052768;28;20025;-89
2021/09/13 04:22:10;;;;;;;7.78;1.60;;;16.00;99.90;;;;;;5054271;28;20167;-87
2021/09/13 04:24:36;;;;;;;12.98;1.90;;;16.00;99.90;;;;;;5057144;28;20008;-87
2021/09/13 04:27:01;;;;;;;10.88;2.30;;;16.20;99.90;;;;;;5054064;28;20025;-89
2021/09/13 04:29:27;;;;;;;7.88;1.90;;;16.00;99.90;;;;;;5052518;28;20505;-89
2021/09/13 04:31:53;;;;;;;7.15;1.55;;;16.10;99.90;;;;;;5052788;28;20090;-89
2021/09/13 04:34:19;;;;;;;8.68;1.60;;;16.00;99.90;;;;;;5052559;28;20068;-89
2021/09/13 04:36:44;;;;;;;9.57;2.08;;;16.00;99.90;;;;;;5052203;28;20393;-89
2021/09/13 04:39:10;;;;;;;3.17;1.33;;;15.90;99.90;;;;;;5052647;28;20033;-89
2021/09/13 04:41:36;;;;;;;4.22;1.52;;;15.80;99.90;;;;;;5052457;28;20439;-89
2021/09/13 04:44:03;;;;;;;4.55;2.00;;;15.80;99.90;;;;;;5053487;28;20052;-88
2021/09/13 04:46:28;;;;;;;7.93;2.08;;;15.80;99.90;;;;;;5053510;28;20025;-89
2021/09/13 04:48:54;;;;;;;6.93;2.00;;;15.80;99.90;;;;;;5052333;28;20120;-89
2021/09/13 04:51:20;;;;;;;7.82;1.98;;;15.80;99.90;;;;;;5052315;28;20036;-89
2021/09/13 04:53:45;;;;;;;3.65;1.48;;;15.80;99.90;;;;;;5044722;28;20076;-89
2021/09/13 04:56:11;;;;;;;7.28;1.70;;;15.80;99.90;;;;;;5019984;28;20032;-89
2021/09/13 04:58:37;;;;;;;8.45;1.77;;;15.70;99.90;;;;;;5020295;28;20366;-90
2021/09/13 05:01:07;;;;;;;5.85;1.60;;;15.70;99.90;;;;;;5037894;28;20025;-90
2021/09/13 05:03:33;;;;;;;7.32;1.63;;;15.90;99.90;;;;;;5020016;28;20392;-89
2021/09/13 05:05:58;;;;;;;4.40;1.50;;;15.90;99.90;;;;;;5019934;28;20113;-89
2021/09/13 05:08:24;;;;;;;2.35;1.50;;;15.90;99.90;;;;;;5019996;28;20404;-89
2021/09/13 05:10:50;;;;;;;4.22;1.85;;;15.90;99.90;;;;;;5020045;28;20033;-89
2021/09/13 05:13:15;;;;;;;6.72;1.80;;;15.80;99.90;;;;;;5019886;28;20603;-89
2021/09/13 05:15:41;;;;;;;8.93;1.88;;;15.60;99.90;;;;;;5022345;28;20401;-91
2021/09/13 05:18:07;;;;;;;6.68;2.05;;;15.60;99.90;;;;;;5020173;28;20064;-91
2021/09/13 05:20:33;;;;;;;6.15;2.00;;;15.70;99.90;;;;;;5020224;28;20402;-90
2021/09/13 05:22:58;;;;;;;8.63;2.35;;;15.80;99.90;;;;;;5020470;28;20033;-90
2021/09/13 05:25:24;;;;;;;8.25;2.00;;;15.70;99.90;;;;;;5020332;28;20060;-90
2021/09/13 05:27:50;;;;;;;8.85;1.60;;;15.60;99.90;;;;;;5020098;28;20021;-91
2021/09/13 05:30:16;;;;;;;6.03;1.35;;;15.70;99.90;;;;;;5037398;28;20439;-90
2021/09/13 05:32:42;;;;;;;2.55;1.38;;;15.80;99.90;;;;;;5020084;28;20401;-91
2021/09/13 05:35:08;;;;;;;7.70;1.50;;;16.00;99.90;;;;;;5037841;28;20017;-91
2021/09/13 05:37:34;;;;;;;6.78;1.77;;;15.90;99.90;;;;;;5019876;28;20033;-90
2021/09/13 05:40:00;;;;;;;6.68;1.33;;;16.10;99.90;;;;;;5019709;28;20026;-91
2021/09/13 05:42:26;;;;;;;2.97;1.50;;;16.30;99.90;;;;;;5037886;28;20462;-91
2021/09/13 05:44:52;;;;;;;7.47;1.80;;;16.30;99.90;;;;;;5019751;28;20022;-90
2021/09/13 05:47:17;;;;;;;5.47;1.60;;;16.60;99.90;;;;;;5019961;28;20082;-91
2021/09/13 05:49:43;;;;;;;6.43;1.70;;;16.40;99.90;;;;;;5037367;28;20090;-91
2021/09/13 05:52:09;;;;;;;4.15;1.58;;;16.20;99.90;;;;;;5038857;28;20032;-91
2021/09/13 05:54:34;;;;;;;4.05;1.55;;;16.30;99.90;;;;;;5053684;28;20412;-90
2021/09/13 05:57:00;;;;;;;6.95;1.50;;;16.30;99.90;;;;;;5064127;28;20025;-90
2021/09/13 05:59:26;;;;;;;6.78;1.52;;;16.50;99.90;;;;;;5066852;28;20025;-91
2021/09/13 06:01:51;;;;;;;3.35;1.40;;;16.50;99.90;;;;;;5059982;28;20024;-91
2021/09/13 06:04:20;;;;;;;9.90;1.48;;;16.80;99.90;;;;;;5056671;28;20036;-90
2021/09/13 06:06:46;;;;;;;2.58;1.30;;;16.50;99.90;;;;;;5056891;28;20492;-91
2021/09/13 06:09:12;;;;;;;2.25;1.17;;;16.50;99.90;;;;;;5055959;28;20040;-91
2021/09/13 06:11:38;;;;;;;5.47;1.40;;;16.80;99.90;;;;;;5055615;28;20511;-91
2021/09/13 06:14:04;;;;;;;6.20;1.70;;;17.00;99.90;;;;;;5056943;28;20021;-91
2021/09/13 06:16:30;;;;;;;6.70;1.42;;;17.20;99.90;;;;;;5055585;28;20025;-90
2021/09/13 06:18:56;;;;;;;1.65;1.30;;;17.00;99.90;;;;;;5056528;28;20486;-90
2021/09/13 06:21:22;;;;;;;2.47;1.42;;;17.00;99.90;;;;;;5056838;28;20028;-91
2021/09/13 06:23:48;;;;;;;4.13;1.65;;;17.00;99.90;;;;;;5055412;28;20017;-91
2021/09/13 06:26:14;;;;;;;4.82;1.60;;;17.00;99.90;;;;;;5055808;28;20469;-90
2021/09/13 06:28:40;;;;;;;4.43;1.50;;;17.20;99.90;;;;;;5055289;28;20468;-90
2021/09/13 06:31:06;;;;;;;7.18;1.50;;;17.00;99.90;;;;;;5055130;28;20033;-90
2021/09/13 06:33:32;;;;;;;2.78;1.70;;;17.10;99.90;;;;;;5054959;28;20025;-90
2021/09/13 06:35:59;;;;;;;2.75;1.20;;;17.10;99.90;;;;;;5055032;28;20029;-90
2021/09/13 06:38:26;;;;;;;5.45;1.40;;;17.30;99.90;;;;;;5054842;28;20025;-91
2021/09/13 06:40:51;;;;;;;3.55;1.30;;;17.40;99.90;;;;;;5055183;28;20021;-90
2021/09/13 06:43:18;;;;;;;3.58;1.60;;;17.40;99.90;;;;;;5055446;28;20024;-90
2021/09/13 06:45:45;;;;;;;7.47;1.73;;;17.60;99.90;;;;;;5056289;28;20444;-91
2021/09/13 06:48:15;;;;;;;2.72;1.55;;;17.80;99.90;;;;;;5056337;28;20025;-90
2021/09/13 06:50:44;;;;;;;3.58;2.00;;;17.90;99.90;;;;;;5054718;28;20056;-90
2021/09/13 06:53:10;;;;;;;4.68;1.52;;;17.90;99.90;;;;;;5054575;28;20052;-90
2021/09/13 06:55:37;;;;;;;3.90;1.75;;;17.90;99.90;;;;;;5054491;28;20095;-90
2021/09/13 06:58:08;;;;;;;7.15;2.00;;;17.90;99.90;;;;;;5054431;28;20507;-90
2021/09/13 07:00:34;;;;;;;4.00;1.55;;;17.90;99.90;;;;;;5054382;28;20021;-89
2021/09/13 07:03:01;;;;;;;3.90;2.30;;;18.00;99.90;;;;;;5055074;28;20112;-90
2021/09/13 07:05:27;;;;;;;4.75;1.95;;;18.00;99.90;;;;;;5055802;28;20013;-89
2021/09/13 07:07:53;;;;;;;6.95;1.98;;;18.00;99.90;;;;;;5054423;28;20029;-89
2021/09/13 07:10:19;;;;;;;8.35;2.00;;;18.20;99.90;;;;;;5055523;28;20231;-89
2021/09/13 07:12:47;;;;;;;8.48;1.90;;;18.00;99.90;;;;;;5054015;28;20078;-89
2021/09/13 07:15:15;;;;;;;8.23;1.90;;;18.00;99.90;;;;;;5053296;28;20029;-89
2021/09/13 07:17:41;;;;;;;4.72;2.05;;;17.90;99.90;;;;;;5055014;28;20384;-89
2021/09/13 07:20:07;;;;;;;6.47;2.20;;;18.10;99.90;;;;;;5055264;28;20100;-90
2021/09/13 07:22:33;;;;;;;4.47;2.00;;;18.10;99.90;;;;;;5053894;28;20035;-90
2021/09/13 07:24:59;;;;;;;5.97;1.75;;;18.30;99.90;;;;;;5053443;28;20504;-90
2021/09/13 07:27:24;;;;;;;2.50;1.60;;;18.50;99.90;;;;;;5055075;28;20055;-90
2021/09/13 07:29:50;;;;;;;4.93;1.73;;;18.80;99.90;;;;;;5055151;28;20060;-89
2021/09/13 07:32:16;;;;;;;7.10;1.63;;;19.10;99.90;;;;;;5053803;28;20021;-91
2021/09/13 07:34:41;;;;;;;5.68;1.95;;;19.30;99.90;;;;;;5053967;28;20572;-91
2021/09/13 07:37:07;;;;;;;3.45;1.67;;;19.20;99.90;;;;;;5055309;28;20053;-90
2021/09/13 07:39:33;;;;;;;4.75;2.00;;;19.30;99.90;;;;;;5053917;28;20025;-90
2021/09/13 07:41:59;;;;;;;5.70;2.17;;;19.30;99.90;;;;;;5055004;28;20025;-90
2021/09/13 07:44:25;;;;;;;4.07;1.50;;;19.30;99.90;;;;;;5053300;28;20052;-88
2021/09/13 07:46:52;;;;;;;3.00;1.85;;;19.40;99.90;;;;;;5053112;28;20055;-88
2021/09/13 07:49:19;;;;;;;3.33;1.55;;;19.50;99.90;;;;;;5053384;28;20031;-89
2021/09/13 07:51:44;;;;;;;7.07;1.70;;;19.90;99.90;;;;;;5052942;28;20388;-88
2021/09/13 07:54:11;;;;;;;6.22;1.70;;;20.00;99.90;;;;;;5040208;28;20051;-89
2021/09/13 07:56:37;;;;;;;3.58;1.65;;;20.10;99.90;;;;;;5016831;28;20030;-90
2021/09/13 07:59:03;;;;;;;6.43;2.00;;;20.30;99.90;;;;;;5016998;28;20388;-88
2021/09/13 08:01:33;;;;;;;3.88;1.38;;;20.50;99.90;;;;;;5016656;28;20447;-89
2021/09/13 08:03:59;;;;;;;2.63;1.88;;;20.60;99.90;;;;;;5019018;28;20021;-89
2021/09/13 08:06:25;;;;;;;6.80;2.00;;;20.60;99.90;;;;;;5019194;28;20018;-89
2021/09/13 08:08:51;;;;;;;2.90;1.70;;;20.60;99.90;;;;;;5043397;28;20032;-89
2021/09/13 08:11:17;;;;;;;4.93;1.67;;;20.60;99.90;;;;;;5021379;28;20032;-89
2021/09/13 08:13:43;;;;;;;7.20;2.67;;;20.80;99.90;;;;;;5017464;28;20524;-89
2021/09/13 08:16:10;;;;;;;6.95;2.10;;;21.00;99.90;;;;;;5017051;28;20398;-88
2021/09/13 08:18:39;;;;;;;4.13;2.10;;;20.90;99.90;;;;;;5016232;28;20032;-88
2021/09/13 08:21:09;;;;;;;4.20;2.15;;;21.00;99.90;;;;;;5016224;28;20025;-88
2021/09/13 08:23:35;;;;;;;4.90;1.80;;;21.30;99.90;;;;;;5016047;28;20091;-88
2021/09/13 08:26:06;;;;;;;5.18;2.22;;;21.40;99.90;;;;;;5016034;28;20121;-88
2021/09/13 08:28:32;;;;;;;5.72;2.42;;;21.40;99.90;;;;;;5014969;28;20029;-88
2021/09/13 08:30:58;;;;;;;3.55;1.98;;;21.50;99.90;;;;;;5015973;28;20022;-88
2021/09/13 08:33:24;;;;;;;10.40;3.38;;;21.70;99.90;;;;;;5015940;28;20083;-89
2021/09/13 08:35:50;;;;;;;5.13;2.35;;;21.70;99.90;;;;;;5015862;28;20040;-88
2021/09/13 08:38:16;;;;;;;5.63;1.63;;;21.80;99.90;;;;;;5033280;28;20068;-86
2021/09/13 08:40:42;;;;;;;2.55;1.85;;;21.90;99.90;;;;;;5015504;28;20065;-88
2021/09/13 08:43:10;;;;;;;6.15;1.80;;;22.00;99.90;;;;;;5033352;28;20101;-88
2021/09/13 08:45:44;;;;;;;3.08;1.88;;;22.10;99.90;;;;;;5015812;28;20421;-88
2021/09/13 08:53:21;;;;;;;4.85;2.10;;;22.60;99.90;;;;;;5033291;28;20524;-88
2021/09/13 08:55:50;;;;;;;2.70;1.67;;;22.60;99.90;;;;;;5033502;28;20393;-89
2021/09/13 08:58:21;;;;;;;3.83;2.03;;;22.60;99.90;;;;;;5015641;28;20079;-88
2021/09/13 09:00:48;;;;;;;4.80;1.58;;;22.70;99.90;;;;;;5015700;28;20030;-88
2021/09/13 09:03:16;;;;;;;2.70;1.73;;;23.00;99.90;;;;;;5033414;28;20477;-88
2021/09/13 09:05:47;;;;;;;4.25;2.05;;;23.10;99.90;;;;;;5015546;28;20022;-88
2021/09/13 09:08:27;;;;;;;5.03;2.22;;;23.00;99.90;;;;;;5015757;28;20033;-88
2021/09/13 09:10:56;;;;;;;2.53;1.85;;;23.00;99.90;;;;;;5033824;28;20033;-88
2021/09/13 09:13:23;;;;;;;4.40;2.15;;;23.10;99.90;;;;;;5033466;28;20104;-88
2021/09/13 09:15:58;;;;;;;11.32;2.38;;;23.20;99.90;;;;;;5015885;28;20036;-88
2021/09/13 09:18:36;;;;;;;4.05;2.45;;;23.30;99.90;;;;;;5016106;28;20094;-88
2021/09/13 09:21:01;;;;;;;5.32;1.80;;;23.20;99.90;;;;;;5015864;28;20025;-88
2021/09/13 09:23:28;;;;;;;6.00;2.47;;;23.10;99.90;;;;;;5015409;28;20029;-88
2021/09/13 09:25:54;;;;;;;6.00;2.15;;;23.10;99.90;;;;;;5015722;28;20084;-87
2021/09/13 09:28:21;;;;;;;2.65;2.10;;;23.30;99.90;;;;;;5015507;28;20026;-88
2021/09/13 09:30:49;;;;;;;5.15;1.80;;;23.50;99.90;;;;;;5015517;28;20021;-88
2021/09/13 09:33:21;;;;;;;6.55;2.47;;;23.80;99.90;;;;;;5015240;28;20038;-87
2021/09/13 09:35:52;;;;;;;4.63;2.55;;;23.90;99.90;;;;;;5033355;28;20079;-87
2021/09/13 09:38:35;;;;;;;5.20;2.80;;;24.00;99.90;;;;;;5015214;28;20120;-88
2021/09/13 09:41:08;;;;;;;5.78;2.88;;;24.00;99.90;;;;;;5018922;28;20052;-88
2021/09/13 09:43:51;;;;;;;4.40;2.50;;;24.20;99.90;;;;;;5036560;28;20139;-87
2021/09/13 09:46:18;;;;;;;3.78;2.33;;;24.20;99.90;;;;;;5036585;28;20022;-88
2021/09/13 09:48:43;;;;;;;7.85;3.15;;;24.40;99.90;;;;;;5018797;28;20030;-87
2021/09/13 09:51:34;;;;;;;4.05;2.42;;;24.20;99.90;;;;;;5018838;28;20029;-88
2021/09/13 09:54:19;;;;;;;3.78;3.30;;;24.40;99.90;;;;;;5037796;28;20049;-89
2021/09/13 09:56:47;;;;;;;5.00;3.20;;;24.30;99.90;;;;;;5037642;28;20052;-88
2021/09/13 09:59:14;;;;;;;4.35;3.45;;;23.90;99.90;;;;;;5019934;28;20033;-88
2021/09/13 10:01:41;;;;;;;7.00;3.13;;;23.90;99.90;;;;;;5021091;28;20492;-87
2021/09/13 10:04:20;;;;;;;4.70;3.25;;;24.20;99.90;;;;;;5018229;28;20045;-88
2021/09/13 10:07:00;;;;;;;5.50;3.75;;;24.80;99.90;;;;;;5018487;28;20022;-88
2021/09/13 10:09:28;;;;;;;4.47;3.25;;;24.50;99.90;;;;;;5018762;28;20493;-88
2021/09/13 10:12:00;;;;;;;4.25;2.28;;;24.10;99.90;;;;;;5035894;28;20044;-88
2021/09/13 10:14:29;;;;;;;6.10;3.25;;;24.30;99.90;;;;;;5018199;28;20072;-87
2021/09/13 10:16:55;;;;;;;4.22;2.70;;;24.20;99.90;;;;;;5020823;28;20056;-88
2021/09/13 10:19:23;;;;;;;4.25;3.20;;;24.10;99.90;;;;;;5021521;28;20505;-89
2021/09/13 10:21:53;;;;;;;9.35;3.78;;;24.50;99.90;;;;;;5019032;28;20067;-87
2021/09/13 10:24:23;;;;;;;6.57;2.60;;;25.10;99.90;;;;;;5018956;28;20086;-87
2021/09/13 10:26:52;;;;;;;3.72;2.72;;;25.50;99.90;;;;;;5036020;28;20473;-88
2021/09/13 10:29:21;;;;;;;5.60;3.10;;;25.90;99.90;;;;;;5018367;28;20048;-88
2021/09/13 10:31:47;;;;;;;3.92;2.67;;;25.90;99.90;;;;;;5035954;28;20028;-87
2021/09/13 10:34:31;;;;;;;4.30;3.30;;;25.90;99.90;;;;;;5038425;28;20386;-88
2021/09/13 10:37:06;;;;;;;6.43;3.17;;;26.20;99.90;;;;;;5038478;28;20037;-88
2021/09/13 10:40:05;;;;;;;4.25;2.90;;;26.10;99.90;;;;;;5035764;28;20104;-88
2021/09/13 10:42:48;;;;;;;3.72;3.05;;;25.70;99.90;;;;;;5017742;28;20108;-88
2021/09/13 10:45:15;;;;;;;4.43;2.72;;;25.30;99.90;;;;;;5017866;28;20024;-88
2021/09/13 10:47:59;;;;;;;4.32;3.42;;;24.90;99.90;;;;;;5036029;28;20033;-89
2021/09/13 10:50:45;;;;;;;4.82;3.28;;;25.60;99.90;;;;;;5035271;28;20479;-87
2021/09/13 10:53:17;;;;;;;3.50;2.25;;;26.30;99.90;;;;;;5035586;28;20076;-88
2021/09/13 10:55:54;;;;;;;7.07;3.10;;;27.00;99.90;;;;;;5018325;28;20059;-87
2021/09/13 10:58:34;;;;;;;6.40;2.30;;;26.60;99.90;;;;;;5017460;28;20036;-87
2021/09/13 11:01:03;;;;;;;5.53;2.65;;;26.80;99.90;;;;;;5018478;28;20028;-88
2021/09/13 11:03:29;;;;;;;3.53;2.30;;;27.30;99.90;;;;;;5017690;28;20075;-89
2021/09/13 11:06:13;;;;;;;2.88;2.15;;;;;;;;;;5017360;28;20026;-87
2021/09/13 11:08:45;;;;;;;2.72;1.73;;;28.30;99.90;;;;;;5017438;28;20057;-87
2021/09/13 11:11:20;;;;;;;3.80;2.10;;;28.40;99.90;;;;;;5035240;28;20030;-87
2021/09/13 11:14:02;;;;;;;3.88;2.10;;;28.20;99.90;;;;;;5035337;28;20370;-87
2021/09/13 11:16:29;;;;;;;3.08;2.00;;;28.30;99.90;;;;;;5017302;28;20076;-87
2021/09/13 11:18:56;;;;;;;4.25;1.85;;;28.80;99.90;;;;;;5034853;28;20394;-88
2021/09/13 11:21:30;;;;;;;2.67;2.05;;;29.60;99.90;;;;;;5017225;28;20052;-88
2021/09/13 11:23:58;;;;;;;2.08;1.52;;;30.00;99.90;;;;;;5017061;28;20028;-88
2021/09/13 11:26:37;;;;;;;3.47;1.80;;;29.80;99.90;;;;;;5016948;28;20024;-87
2021/09/13 11:29:10;;;;;;;3.33;1.60;;;29.80;99.90;;;;;;5034652;28;20029;-87
2021/09/13 11:31:42;;;;;;;3.05;1.60;;;29.80;99.90;;;;;;5034957;28;20512;-87
2021/09/13 11:34:13;;;;;;;4.38;1.58;;;30.00;99.90;;;;;;5017032;28;20077;-88
2021/09/13 11:36:53;;;;;;;3.08;1.65;;;30.00;99.40;;;;;;5016698;28;20083;-88
2021/09/13 11:39:20;;;;;;;2.08;1.50;;;29.60;98.50;;;;;;5016987;28;20532;-88
2021/09/13 11:42:03;;;;;;;2.60;1.50;;;28.80;99.90;;;;;;5034480;28;20026;-88
2021/09/13 11:44:35;;;;;;;2.50;1.83;;;29.70;99.90;;;;;;5016721;28;20022;-88
2021/09/13 11:47:03;;;;;;;1.92;1.45;;;30.50;98.90;;;;;;5016705;28;20124;-87
2021/09/13 11:49:35;;;;;;;1.55;1.45;;;30.90;98.10;;;;;;5034386;28;20021;-88
2021/09/13 11:52:09;;;;;;;4.93;1.50;;;31.20;97.10;;;;;;5033104;28;20116;-87
2021/09/13 11:54:42;;;;;;;2.67;1.40;;;31.10;96.80;;;;;;5034114;28;20123;-88
2021/09/13 11:57:23;;;;;;;3.55;1.70;;;31.70;96.20;;;;;;5035093;28;20029;-88
2021/09/13 12:00:22;;;;;;;1.67;1.48;;;32.20;94.90;;;;;;5016212;28;20021;-88
2021/09/13 12:02:56;;;;;;;2.28;1.40;;;32.00;94.20;;;;;;5033963;28;20018;-87
2021/09/13 12:05:25;;;;;;;3.97;1.60;;;32.10;94.40;;;;;;5016713;28;20013;-87
2021/09/13 12:07:53;;;;;;;2.33;1.58;;;32.00;94.50;;;;;;5016565;28;20123;-88
2021/09/13 12:10:25;;;;;;;1.85;1.40;;;32.00;93.50;;;;;;5016181;28;20378;-87
2021/09/13 12:12:53;;;;;;;2.25;1.48;;;31.60;94.60;;;;;;5016377;28;20500;-87
2021/09/13 12:15:20;;;;;;;3.72;1.50;;;31.50;94.50;;;;;;5016195;28;20079;-88
2021/09/13 12:17:52;;;;;;;3.55;1.50;;;31.50;95.00;;;;;;5016286;28;20025;-88
2021/09/13 12:20:20;;;;;;;2.38;1.60;;;31.50;94.80;;;;;;5016081;28;20441;-87
2021/09/13 12:23:04;;;;;;;7.50;1.65;;;29.90;95.10;;;;;;5016343;28;20021;-87
2021/09/13 12:25:41;;;;;;;4.32;1.70;;;29.80;96.20;;;;;;5036832;28;20504;-87
2021/09/13 12:28:07;;;;;;;3.08;1.60;;;30.10;95.60;;;;;;5037182;28;20086;-87
2021/09/13 12:30:35;;;;;;;2.50;1.42;;;29.70;95.10;;;;;;5017247;28;20037;-88
2021/09/13 12:33:03;;;;;;;4.25;1.70;;;28.80;96.10;;;;;;5017291;28;20426;-88
2021/09/13 12:35:44;;;;;;;3.08;1.50;;;28.90;95.90;;;;;;5016294;28;20032;-87
2021/09/13 12:38:21;;;;;;;3.25;1.60;;;28.60;97.10;;;;;;5016093;28;20036;-88
2021/09/13 12:41:01;;;;;;;1.42;1.33;;;28.00;97.80;;;;;;5016682;28;20021;-88
2021/09/13 12:43:36;;;;;;;3.72;1.88;;;27.60;97.20;;;;;;5015829;28;20025;-88
2021/09/13 12:46:15;;;;;;;2.78;1.67;;;27.40;97.80;;;;;;5016498;28;20053;-88
2021/09/13 12:48:45;;;;;;;2.58;1.83;;;28.10;97.90;;;;;;5015821;28;20079;-87
2021/09/13 12:51:17;;;;;;;6.88;2.08;;;29.20;97.30;;;;;;5033450;28;20033;-87
2021/09/13 12:54:00;;;;;;;2.00;1.40;;;29.90;95.50;;;;;;5033329;28;20049;-87
2021/09/13 12:56:29;;;;;;;3.17;1.30;;;30.50;94.70;;;;;;5016603;28;20048;-87
2021/09/13 12:59:16;;;;;;;2.75;1.38;;;30.10;94.30;;;;;;5015591;28;20098;-87
2021/09/13 13:01:41;;;;;;;2.50;1.50;;;30.50;94.40;;;;;;5033385;28;20520;-87